sensor_id;sensor_type;location;lat;lon;timestamp;pressure;altitude;pressure_sealevel;temperature;humidity
78665;BME280;67981;51.022;-2.870;2023-04-01T00:01:54;99781.75;;;10.01;82.96
78665;BME280;67981;51.022;-2.870;2023-04-01T00:04:20;99793.91;;;10.08;82.29
78665;BME280;67981;51.022;-2.870;2023-04-01T00:06:46;99799.94;;;10.10;82.25
78665;BME280;67981;51.022;-2.870;2023-04-01T00:09:13;99783.47;;;10.02;82.36
78665;BME280;67981;51.022;-2.870;2023-04-01T00:11:39;99817.16;;;10.13;82.81
78665;BME280;67981;51.022;-2.870;2023-04-01T00:14:05;99818.84;;;10.11;84.22
78665;BME280;67981;51.022;-2.870;2023-04-01T00:16:30;99779.75;;;9.82;83.64
78665;BME280;67981;51.022;-2.870;2023-04-01T00:18:56;99822.03;;;9.94;84.22
78665;BME280;67981;51.022;-2.870;2023-04-01T00:21:22;99829.69;;;9.90;85.17
78665;BME280;67981;51.022;-2.870;2023-04-01T00:23:49;99790.75;;;9.70;84.18
78665;BME280;67981;51.022;-2.870;2023-04-01T00:26:15;99833.22;;;9.95;84.52
78665;BME280;67981;51.022;-2.870;2023-04-01T00:28:44;99829.78;;;9.96;84.14
78665;BME280;67981;51.022;-2.870;2023-04-01T00:31:10;99795.91;;;9.70;84.49
78665;BME280;67981;51.022;-2.870;2023-04-01T00:33:36;99834.84;;;9.90;84.82
78665;BME280;67981;51.022;-2.870;2023-04-01T00:36:13;99809.69;;;9.74;84.52
78665;BME280;67981;51.022;-2.870;2023-04-01T00:38:39;99834.88;;;9.93;83.79
78665;BME280;67981;51.022;-2.870;2023-04-01T00:41:06;99824.59;;;9.93;84.26
78665;BME280;67981;51.022;-2.870;2023-04-01T00:43:33;99801.13;;;9.75;83.38
78665;BME280;67981;51.022;-2.870;2023-04-01T00:45:58;99823.63;;;9.86;83.33
78665;BME280;67981;51.022;-2.870;2023-04-01T00:48:36;99835.81;;;9.96;83.54
78665;BME280;67981;51.022;-2.870;2023-04-01T00:53:34;99841.00;;;9.99;83.08
78665;BME280;67981;51.022;-2.870;2023-04-01T00:56:07;99811.41;;;9.75;83.11
78665;BME280;67981;51.022;-2.870;2023-04-01T00:58:39;99839.19;;;9.94;83.75
78665;BME280;67981;51.022;-2.870;2023-04-01T01:01:07;99835.56;;;9.81;83.30
78665;BME280;67981;51.022;-2.870;2023-04-01T01:03:33;99798.25;;;9.57;83.69
78665;BME280;67981;51.022;-2.870;2023-04-01T01:06:20;99851.13;;;9.89;83.34
78665;BME280;67981;51.022;-2.870;2023-04-01T01:11:15;99851.00;;;9.80;83.85
78665;BME280;67981;51.022;-2.870;2023-04-01T01:14:11;99859.66;;;9.83;83.59
78665;BME280;67981;51.022;-2.870;2023-04-01T01:16:46;99834.47;;;9.66;83.58
78665;BME280;67981;51.022;-2.870;2023-04-01T01:25:06;99857.09;;;9.85;82.85
78665;BME280;67981;51.022;-2.870;2023-04-01T01:27:34;99835.34;;;9.66;82.89
78665;BME280;67981;51.022;-2.870;2023-04-01T01:33:11;99847.41;;;9.69;83.21
78665;BME280;67981;51.022;-2.870;2023-04-01T01:35:49;99817.13;;;9.54;82.02
78665;BME280;67981;51.022;-2.870;2023-04-01T01:38:18;99875.91;;;9.79;82.87
78665;BME280;67981;51.022;-2.870;2023-04-01T01:40:48;99869.97;;;9.85;82.41
78665;BME280;67981;51.022;-2.870;2023-04-01T01:43:21;99865.53;;;9.76;82.66
78665;BME280;67981;51.022;-2.870;2023-04-01T01:45:52;99881.06;;;9.81;82.89
78665;BME280;67981;51.022;-2.870;2023-04-01T01:48:19;99876.75;;;9.78;82.94
78665;BME280;67981;51.022;-2.870;2023-04-01T01:50:45;99864.59;;;9.71;82.53
78665;BME280;67981;51.022;-2.870;2023-04-01T01:53:12;99890.59;;;9.85;82.25
78665;BME280;67981;51.022;-2.870;2023-04-01T01:55:45;99888.00;;;9.83;82.52
78665;BME280;67981;51.022;-2.870;2023-04-01T02:00:43;99901.75;;;9.82;82.81
78665;BME280;67981;51.022;-2.870;2023-04-01T02:03:12;99887.09;;;9.81;82.41
78665;BME280;67981;51.022;-2.870;2023-04-01T02:05:39;99897.38;;;9.80;82.88
78665;BME280;67981;51.022;-2.870;2023-04-01T02:08:18;99851.53;;;9.58;83.05
78665;BME280;67981;51.022;-2.870;2023-04-01T02:10:56;99899.09;;;9.81;83.29
78665;BME280;67981;51.022;-2.870;2023-04-01T02:13:31;99874.00;;;9.66;82.81
78665;BME280;67981;51.022;-2.870;2023-04-01T02:16:02;99874.75;;;9.61;83.34
78665;BME280;67981;51.022;-2.870;2023-04-01T02:18:33;99904.19;;;9.76;82.76
78665;BME280;67981;51.022;-2.870;2023-04-01T02:21:00;99872.13;;;9.58;83.10
78665;BME280;67981;51.022;-2.870;2023-04-01T02:23:27;99894.72;;;9.74;83.12
78665;BME280;67981;51.022;-2.870;2023-04-01T02:25:54;99902.44;;;9.74;83.43
78665;BME280;67981;51.022;-2.870;2023-04-01T02:28:19;99899.78;;;9.68;83.64
78665;BME280;67981;51.022;-2.870;2023-04-01T02:30:46;99906.72;;;9.73;83.26
78665;BME280;67981;51.022;-2.870;2023-04-01T02:33:15;99887.56;;;9.58;83.66
78665;BME280;67981;51.022;-2.870;2023-04-01T02:35:40;99916.75;;;9.58;85.26
78665;BME280;67981;51.022;-2.870;2023-04-01T02:38:06;99892.94;;;9.22;87.10
78665;BME280;67981;51.022;-2.870;2023-04-01T02:40:42;99892.69;;;9.10;88.27
78665;BME280;67981;51.022;-2.870;2023-04-01T02:43:07;99918.63;;;9.19;89.21
78665;BME280;67981;51.022;-2.870;2023-04-01T02:45:33;99888.91;;;8.92;89.62
78665;BME280;67981;51.022;-2.870;2023-04-01T02:47:58;99897.53;;;8.94;89.82
78665;BME280;67981;51.022;-2.870;2023-04-01T02:50:23;99896.69;;;8.95;89.55
78665;BME280;67981;51.022;-2.870;2023-04-01T02:52:49;99901.84;;;8.95;89.73
78665;BME280;67981;51.022;-2.870;2023-04-01T02:55:14;99920.25;;;9.14;89.45
78665;BME280;67981;51.022;-2.870;2023-04-01T02:57:40;99902.78;;;8.98;89.93
78665;BME280;67981;51.022;-2.870;2023-04-01T03:00:06;99924.41;;;9.08;89.79
78665;BME280;67981;51.022;-2.870;2023-04-01T03:02:37;99931.25;;;9.07;90.61
78665;BME280;67981;51.022;-2.870;2023-04-01T03:05:03;99919.16;;;9.02;90.26
78665;BME280;67981;51.022;-2.870;2023-04-01T03:07:29;99888.81;;;8.86;90.13
78665;BME280;67981;51.022;-2.870;2023-04-01T03:09:54;99928.66;;;9.07;89.87
78665;BME280;67981;51.022;-2.870;2023-04-01T03:12:19;99866.31;;;8.76;89.61
78665;BME280;67981;51.022;-2.870;2023-04-01T03:14:45;99929.59;;;9.11;89.68
78665;BME280;67981;51.022;-2.870;2023-04-01T03:17:10;99931.41;;;9.13;89.26
78665;BME280;67981;51.022;-2.870;2023-04-01T03:19:36;99908.78;;;8.99;89.02
78665;BME280;67981;51.022;-2.870;2023-04-01T03:22:01;99897.59;;;8.97;88.29
78665;BME280;67981;51.022;-2.870;2023-04-01T03:24:27;99934.91;;;9.18;88.57
78665;BME280;67981;51.022;-2.870;2023-04-01T03:26:52;99906.28;;;9.02;88.16
78665;BME280;67981;51.022;-2.870;2023-04-01T03:29:18;99917.50;;;9.05;89.09
78665;BME280;67981;51.022;-2.870;2023-04-01T03:31:43;99937.31;;;9.11;89.18
78665;BME280;67981;51.022;-2.870;2023-04-01T03:34:09;99901.84;;;8.95;88.30
78665;BME280;67981;51.022;-2.870;2023-04-01T03:36:35;99950.19;;;9.11;89.51
78665;BME280;67981;51.022;-2.870;2023-04-01T03:39:01;99940.50;;;8.98;90.11
78665;BME280;67981;51.022;-2.870;2023-04-01T03:41:28;99947.28;;;8.94;90.98
78665;BME280;67981;51.022;-2.870;2023-04-01T03:43:53;99916.81;;;8.72;90.75
78665;BME280;67981;51.022;-2.870;2023-04-01T03:46:19;99916.94;;;8.78;90.69
78665;BME280;67981;51.022;-2.870;2023-04-01T03:48:45;99929.78;;;8.78;90.63
78665;BME280;67981;51.022;-2.870;2023-04-01T03:51:11;99922.88;;;8.74;90.83
78665;BME280;67981;51.022;-2.870;2023-04-01T03:53:36;99924.63;;;8.77;89.89
78665;BME280;67981;51.022;-2.870;2023-04-01T03:56:06;99912.50;;;8.70;89.50
78665;BME280;67981;51.022;-2.870;2023-04-01T03:58:31;99929.97;;;8.86;89.49
78665;BME280;67981;51.022;-2.870;2023-04-01T04:00:57;99899.47;;;8.63;89.04
78665;BME280;67981;51.022;-2.870;2023-04-01T04:03:22;99958.50;;;8.98;89.51
78665;BME280;67981;51.022;-2.870;2023-04-01T04:05:49;99896.16;;;8.68;88.50
78665;BME280;67981;51.022;-2.870;2023-04-01T04:08:14;99933.44;;;8.89;88.45
78665;BME280;67981;51.022;-2.870;2023-04-01T04:10:40;99939.47;;;8.90;88.02
78665;BME280;67981;51.022;-2.870;2023-04-01T04:13:06;99960.47;;;9.09;87.75
78665;BME280;67981;51.022;-2.870;2023-04-01T04:15:32;99945.63;;;8.96;87.58
78665;BME280;67981;51.022;-2.870;2023-04-01T04:17:57;99944.84;;;9.00;86.62
78665;BME280;67981;51.022;-2.870;2023-04-01T04:20:23;99916.19;;;8.84;86.45
78665;BME280;67981;51.022;-2.870;2023-04-01T04:22:48;99945.75;;;9.04;86.31
78665;BME280;67981;51.022;-2.870;2023-04-01T04:25:14;99973.63;;;9.23;85.87
78665;BME280;67981;51.022;-2.870;2023-04-01T04:27:39;99951.75;;;9.03;86.44
78665;BME280;67981;51.022;-2.870;2023-04-01T04:30:06;99957.88;;;9.09;85.60
78665;BME280;67981;51.022;-2.870;2023-04-01T04:32:31;99950.16;;;9.09;85.38
78665;BME280;67981;51.022;-2.870;2023-04-01T04:34:57;99965.81;;;9.20;85.57
78665;BME280;67981;51.022;-2.870;2023-04-01T04:37:22;99960.41;;;9.06;86.01
78665;BME280;67981;51.022;-2.870;2023-04-01T04:39:48;99968.47;;;9.23;85.26
78665;BME280;67981;51.022;-2.870;2023-04-01T04:42:13;99970.06;;;9.16;84.56
78665;BME280;67981;51.022;-2.870;2023-04-01T04:44:39;99935.41;;;9.01;85.16
78665;BME280;67981;51.022;-2.870;2023-04-01T04:47:05;99967.38;;;9.12;85.06
78665;BME280;67981;51.022;-2.870;2023-04-01T04:49:31;99982.28;;;9.28;84.57
78665;BME280;67981;51.022;-2.870;2023-04-01T04:51:56;99964.78;;;9.12;85.25
78665;BME280;67981;51.022;-2.870;2023-04-01T04:54:22;99970.00;;;9.13;84.83
78665;BME280;67981;51.022;-2.870;2023-04-01T04:56:47;99955.22;;;9.05;84.69
78665;BME280;67981;51.022;-2.870;2023-04-01T04:59:13;99990.78;;;9.24;85.48
78665;BME280;67981;51.022;-2.870;2023-04-01T05:01:38;99981.16;;;9.15;85.42
78665;BME280;67981;51.022;-2.870;2023-04-01T05:04:03;99969.88;;;9.09;85.85
78665;BME280;67981;51.022;-2.870;2023-04-01T05:06:29;99954.09;;;8.91;86.40
78665;BME280;67981;51.022;-2.870;2023-04-01T05:08:55;99974.25;;;9.11;84.71
78665;BME280;67981;51.022;-2.870;2023-04-01T05:11:21;99990.59;;;9.13;85.07
78665;BME280;67981;51.022;-2.870;2023-04-01T05:13:46;100003.66;;;9.24;85.72
78665;BME280;67981;51.022;-2.870;2023-04-01T05:16:15;99982.97;;;9.18;84.66
78665;BME280;67981;51.022;-2.870;2023-04-01T05:18:41;100003.72;;;9.27;84.46
78665;BME280;67981;51.022;-2.870;2023-04-01T05:21:08;99979.38;;;9.10;85.22
78665;BME280;67981;51.022;-2.870;2023-04-01T05:23:34;99989.69;;;9.11;84.33
78665;BME280;67981;51.022;-2.870;2023-04-01T05:26:04;99968.22;;;9.11;83.49
78665;BME280;67981;51.022;-2.870;2023-04-01T05:28:29;99976.75;;;9.08;84.66
78665;BME280;67981;51.022;-2.870;2023-04-01T05:30:59;99977.72;;;9.13;84.53
78665;BME280;67981;51.022;-2.870;2023-04-01T05:33:25;100013.16;;;9.28;84.56
78665;BME280;67981;51.022;-2.870;2023-04-01T05:35:50;99981.13;;;9.12;84.05
78665;BME280;67981;51.022;-2.870;2023-04-01T05:38:16;100022.59;;;9.26;84.36
78665;BME280;67981;51.022;-2.870;2023-04-01T05:40:41;100013.06;;;9.22;84.67
78665;BME280;67981;51.022;-2.870;2023-04-01T05:43:07;99980.97;;;9.05;84.26
78665;BME280;67981;51.022;-2.870;2023-04-01T05:45:33;100031.13;;;9.25;84.65
78665;BME280;67981;51.022;-2.870;2023-04-01T05:47:59;100029.38;;;9.22;84.95
78665;BME280;67981;51.022;-2.870;2023-04-01T05:50:25;99992.19;;;9.08;84.69
78665;BME280;67981;51.022;-2.870;2023-04-01T05:52:50;100023.41;;;9.25;85.05
78665;BME280;67981;51.022;-2.870;2023-04-01T05:55:16;100030.25;;;9.23;84.54
78665;BME280;67981;51.022;-2.870;2023-04-01T05:57:41;100035.28;;;9.18;85.02
78665;BME280;67981;51.022;-2.870;2023-04-01T06:00:07;100034.53;;;9.22;84.64
78665;BME280;67981;51.022;-2.870;2023-04-01T06:02:33;100036.34;;;9.28;84.47
78665;BME280;67981;51.022;-2.870;2023-04-01T06:05:11;100009.38;;;9.09;84.22
78665;BME280;67981;51.022;-2.870;2023-04-01T06:07:37;100015.34;;;9.07;84.29
78665;BME280;67981;51.022;-2.870;2023-04-01T06:10:12;100017.03;;;9.06;84.74
78665;BME280;67981;51.022;-2.870;2023-04-01T06:15:23;100046.53;;;9.22;84.58
78665;BME280;67981;51.022;-2.870;2023-04-01T06:18:15;100048.19;;;9.60;83.32
78665;BME280;67981;51.022;-2.870;2023-04-01T06:29:24;100052.13;;;9.03;86.51
78665;BME280;67981;51.022;-2.870;2023-04-01T06:48:37;100047.16;;;8.73;87.67
78665;BME280;67981;51.022;-2.870;2023-04-01T06:54:18;100073.06;;;8.81;87.75
78665;BME280;67981;51.022;-2.870;2023-04-01T06:56:49;100087.69;;;8.83;88.48
78665;BME280;67981;51.022;-2.870;2023-04-01T06:59:21;100084.16;;;8.80;88.36
78665;BME280;67981;51.022;-2.870;2023-04-01T07:04:41;100088.53;;;8.82;89.15
78665;BME280;67981;51.022;-2.870;2023-04-01T07:07:27;100096.13;;;8.76;88.98
78665;BME280;67981;51.022;-2.870;2023-04-01T07:09:56;100102.91;;;8.73;89.58
78665;BME280;67981;51.022;-2.870;2023-04-01T07:12:43;100071.66;;;8.57;89.96
78665;BME280;67981;51.022;-2.870;2023-04-01T07:15:19;100069.97;;;8.58;89.40
78665;BME280;67981;51.022;-2.870;2023-04-01T07:17:47;100094.22;;;8.69;90.09
78665;BME280;67981;51.022;-2.870;2023-04-01T07:22:44;100061.97;;;8.47;90.74
78665;BME280;67981;51.022;-2.870;2023-04-01T07:25:13;100078.63;;;8.62;91.47
78665;BME280;67981;51.022;-2.870;2023-04-01T07:27:41;100039.59;;;8.43;90.53
78665;BME280;67981;51.022;-2.870;2023-04-01T07:30:18;100103.13;;;8.83;89.65
78665;BME280;67981;51.022;-2.870;2023-04-01T07:32:47;100105.00;;;8.89;89.39
78665;BME280;67981;51.022;-2.870;2023-04-01T07:35:19;100047.75;;;8.62;89.47
78665;BME280;67981;51.022;-2.870;2023-04-01T07:38:11;100106.81;;;8.94;89.14
78665;BME280;67981;51.022;-2.870;2023-04-01T07:40:48;100079.13;;;8.83;88.97
78665;BME280;67981;51.022;-2.870;2023-04-01T07:54:48;100121.56;;;9.38;86.38
78665;BME280;67981;51.022;-2.870;2023-04-01T07:57:22;100131.78;;;9.35;86.16
78665;BME280;67981;51.022;-2.870;2023-04-01T08:00:02;100134.56;;;9.44;86.08
78665;BME280;67981;51.022;-2.870;2023-04-01T08:05:25;100139.75;;;9.47;85.90
78665;BME280;67981;51.022;-2.870;2023-04-01T08:08:49;100144.81;;;9.43;86.10
78665;BME280;67981;51.022;-2.870;2023-04-01T08:20:10;100163.66;;;9.40;85.74
78665;BME280;67981;51.022;-2.870;2023-04-01T08:22:42;100151.66;;;9.42;86.01
78665;BME280;67981;51.022;-2.870;2023-04-01T08:25:16;100141.44;;;9.44;85.78
78665;BME280;67981;51.022;-2.870;2023-04-01T08:27:51;100157.94;;;9.53;84.71
78665;BME280;67981;51.022;-2.870;2023-04-01T08:30:28;100133.03;;;9.54;85.44
78665;BME280;67981;51.022;-2.870;2023-04-01T08:33:28;100174.59;;;9.69;85.17
78665;BME280;67981;51.022;-2.870;2023-04-01T08:36:03;100177.09;;;9.66;84.92
78665;BME280;67981;51.022;-2.870;2023-04-01T08:38:34;100184.28;;;9.80;85.51
78665;BME280;67981;51.022;-2.870;2023-04-01T08:49:50;100198.22;;;9.90;84.72
78665;BME280;67981;51.022;-2.870;2023-04-01T08:52:31;100199.28;;;9.99;84.11
78665;BME280;67981;51.022;-2.870;2023-04-01T09:14:11;100204.06;;;10.23;82.53
78665;BME280;67981;51.022;-2.870;2023-04-01T09:16:51;100215.47;;;10.34;82.69
78665;BME280;67981;51.022;-2.870;2023-04-01T09:19:55;100213.91;;;10.42;82.13
78665;BME280;67981;51.022;-2.870;2023-04-01T09:30:10;100224.31;;;10.45;81.43
78665;BME280;67981;51.022;-2.870;2023-04-01T09:38:20;100225.72;;;10.76;80.57
78665;BME280;67981;51.022;-2.870;2023-04-01T09:43:45;100224.81;;;10.72;80.64
78665;BME280;67981;51.022;-2.870;2023-04-01T10:07:58;100244.94;;;10.91;80.21
78665;BME280;67981;51.022;-2.870;2023-04-01T10:10:47;100245.84;;;10.95;79.34
78665;BME280;67981;51.022;-2.870;2023-04-01T10:38:08;100279.78;;;11.16;79.18
78665;BME280;67981;51.022;-2.870;2023-04-01T10:48:42;100282.94;;;11.51;78.40
78665;BME280;67981;51.022;-2.870;2023-04-01T10:56:53;100272.31;;;11.34;77.77
78665;BME280;67981;51.022;-2.870;2023-04-01T10:59:35;100285.44;;;11.44;77.99
78665;BME280;67981;51.022;-2.870;2023-04-01T11:05:33;100301.44;;;11.22;78.15
78665;BME280;67981;51.022;-2.870;2023-04-01T11:20:00;100315.50;;;11.41;76.13
78665;BME280;67981;51.022;-2.870;2023-04-01T11:22:47;100328.34;;;11.35;75.36
78665;BME280;67981;51.022;-2.870;2023-04-01T11:30:57;100325.38;;;11.65;74.74
78665;BME280;67981;51.022;-2.870;2023-04-01T11:43:36;100327.44;;;11.33;75.83
78665;BME280;67981;51.022;-2.870;2023-04-01T11:51:40;100369.25;;;10.68;81.41
78665;BME280;67981;51.022;-2.870;2023-04-01T11:54:43;100364.59;;;10.52;81.76
78665;BME280;67981;51.022;-2.870;2023-04-01T12:08:37;100396.97;;;10.79;82.26
78665;BME280;67981;51.022;-2.870;2023-04-01T12:11:33;100393.72;;;10.88;82.87
78665;BME280;67981;51.022;-2.870;2023-04-01T12:41:08;100451.19;;;10.79;83.28
78665;BME280;67981;51.022;-2.870;2023-04-01T12:44:12;100453.75;;;10.79;83.95
78665;BME280;67981;51.022;-2.870;2023-04-01T12:55:38;100473.25;;;10.65;84.20
78665;BME280;67981;51.022;-2.870;2023-04-01T12:58:36;100475.28;;;10.80;83.13
78665;BME280;67981;51.022;-2.870;2023-04-01T13:09:52;100490.50;;;11.50;81.54
78665;BME280;67981;51.022;-2.870;2023-04-01T13:12:45;100487.91;;;11.48;80.15
78665;BME280;67981;51.022;-2.870;2023-04-01T13:33:20;100470.81;;;11.55;78.61
78665;BME280;67981;51.022;-2.870;2023-04-01T13:42:24;100520.22;;;12.17;80.35
78665;BME280;67981;51.022;-2.870;2023-04-01T13:44:59;100525.09;;;12.01;80.09
78665;BME280;67981;51.022;-2.870;2023-04-01T13:55:46;100551.44;;;12.28;74.59
78665;BME280;67981;51.022;-2.870;2023-04-01T14:03:57;100580.47;;;12.12;76.43
78665;BME280;67981;51.022;-2.870;2023-04-01T14:27:57;100620.97;;;12.11;74.19
78665;BME280;67981;51.022;-2.870;2023-04-01T14:41:38;100637.13;;;12.44;71.96
78665;BME280;67981;51.022;-2.870;2023-04-01T14:47:11;100622.53;;;12.48;69.36
78665;BME280;67981;51.022;-2.870;2023-04-01T14:49:46;100652.25;;;12.71;69.41
78665;BME280;67981;51.022;-2.870;2023-04-01T14:54:46;100642.66;;;12.64;67.39
78665;BME280;67981;51.022;-2.870;2023-04-01T14:57:15;100659.94;;;12.66;65.51
78665;BME280;67981;51.022;-2.870;2023-04-01T15:02:31;100665.00;;;12.60;65.88
78665;BME280;67981;51.022;-2.870;2023-04-01T15:05:20;100660.81;;;12.67;67.47
78665;BME280;67981;51.022;-2.870;2023-04-01T15:08:12;100681.44;;;12.61;66.43
78665;BME280;67981;51.022;-2.870;2023-04-01T15:16:55;100679.53;;;13.02;64.10
78665;BME280;67981;51.022;-2.870;2023-04-01T15:19:39;100684.00;;;13.10;64.67
78665;BME280;67981;51.022;-2.870;2023-04-01T15:22:20;100705.25;;;12.91;64.94
78665;BME280;67981;51.022;-2.870;2023-04-01T15:40:11;100731.59;;;13.15;63.80
78665;BME280;67981;51.022;-2.870;2023-04-01T15:56:23;100755.13;;;12.79;62.96
78665;BME280;67981;51.022;-2.870;2023-04-01T16:01:43;100762.38;;;13.00;62.75
78665;BME280;67981;51.022;-2.870;2023-04-01T16:17:11;100776.31;;;13.05;62.93
78665;BME280;67981;51.022;-2.870;2023-04-01T16:19:51;100784.63;;;12.88;63.71
78665;BME280;67981;51.022;-2.870;2023-04-01T16:22:32;100780.28;;;12.87;64.31
78665;BME280;67981;51.022;-2.870;2023-04-01T16:25:17;100797.41;;;12.78;63.82
78665;BME280;67981;51.022;-2.870;2023-04-01T16:27:53;100792.09;;;12.72;64.83
78665;BME280;67981;51.022;-2.870;2023-04-01T16:30:38;100793.00;;;12.74;64.54
78665;BME280;67981;51.022;-2.870;2023-04-01T16:35:53;100786.56;;;12.53;65.69
78665;BME280;67981;51.022;-2.870;2023-04-01T16:41:07;100807.34;;;12.57;65.80
78665;BME280;67981;51.022;-2.870;2023-04-01T16:43:43;100817.41;;;12.44;64.70
78665;BME280;67981;51.022;-2.870;2023-04-01T16:49:16;100815.44;;;12.32;66.26
78665;BME280;67981;51.022;-2.870;2023-04-01T16:54:28;100821.97;;;12.55;67.01
78665;BME280;67981;51.022;-2.870;2023-04-01T16:56:56;100830.78;;;12.65;65.60
78665;BME280;67981;51.022;-2.870;2023-04-01T16:59:34;100825.50;;;12.59;66.56
78665;BME280;67981;51.022;-2.870;2023-04-01T17:16:27;100864.47;;;13.08;67.63
78665;BME280;67981;51.022;-2.870;2023-04-01T17:18:32;100866.72;;;12.92;67.64
78665;BME280;67981;51.022;-2.870;2023-04-01T17:21:10;100868.34;;;12.45;68.78
78665;BME280;67981;51.022;-2.870;2023-04-01T17:23:49;100877.19;;;12.16;69.69
78665;BME280;67981;51.022;-2.870;2023-04-01T17:28:51;100884.25;;;11.87;70.54
78665;BME280;67981;51.022;-2.870;2023-04-01T17:37:25;100893.06;;;11.95;70.84
78665;BME280;67981;51.022;-2.870;2023-04-01T17:45:51;100914.09;;;12.09;70.40
78665;BME280;67981;51.022;-2.870;2023-04-01T17:54:39;100933.56;;;11.93;71.61
78665;BME280;67981;51.022;-2.870;2023-04-01T17:57:39;100935.22;;;11.91;72.15
78665;BME280;67981;51.022;-2.870;2023-04-01T18:00:14;100947.25;;;11.89;72.65
78665;BME280;67981;51.022;-2.870;2023-04-01T18:05:30;100949.69;;;11.83;73.86
78665;BME280;67981;51.022;-2.870;2023-04-01T18:08:30;100967.44;;;11.70;74.66
78665;BME280;67981;51.022;-2.870;2023-04-01T18:11:17;100966.22;;;11.57;76.05
78665;BME280;67981;51.022;-2.870;2023-04-01T18:14:20;100980.09;;;11.29;77.53
78665;BME280;67981;51.022;-2.870;2023-04-01T18:22:23;101002.94;;;10.86;80.79
78665;BME280;67981;51.022;-2.870;2023-04-01T18:30:28;101019.66;;;10.69;82.88
78665;BME280;67981;51.022;-2.870;2023-04-01T18:33:17;101023.94;;;10.69;84.28
78665;BME280;67981;51.022;-2.870;2023-04-01T18:35:53;101026.31;;;10.63;84.37
78665;BME280;67981;51.022;-2.870;2023-04-01T18:38:32;101042.66;;;10.63;85.00
78665;BME280;67981;51.022;-2.870;2023-04-01T18:41:42;101044.31;;;10.60;85.74
78665;BME280;67981;51.022;-2.870;2023-04-01T18:44:23;101052.63;;;10.51;85.78
78665;BME280;67981;51.022;-2.870;2023-04-01T18:53:27;101076.38;;;10.41;85.18
78665;BME280;67981;51.022;-2.870;2023-04-01T18:55:55;101077.91;;;10.36;85.33
78665;BME280;67981;51.022;-2.870;2023-04-01T18:59:21;101082.28;;;10.37;85.38
78665;BME280;67981;51.022;-2.870;2023-04-01T19:01:42;101088.22;;;10.36;85.47
78665;BME280;67981;51.022;-2.870;2023-04-01T19:04:19;101089.06;;;10.35;84.88
78665;BME280;67981;51.022;-2.870;2023-04-01T19:06:52;101088.34;;;10.39;84.43
78665;BME280;67981;51.022;-2.870;2023-04-01T19:12:57;101097.78;;;10.39;83.45
78665;BME280;67981;51.022;-2.870;2023-04-01T19:21:13;101111.59;;;10.41;81.43
78665;BME280;67981;51.022;-2.870;2023-04-01T19:42:27;101166.72;;;10.18;82.96
78665;BME280;67981;51.022;-2.870;2023-04-01T19:53:43;101188.81;;;10.11;83.63
78665;BME280;67981;51.022;-2.870;2023-04-01T19:56:20;101192.56;;;10.19;83.51
78665;BME280;67981;51.022;-2.870;2023-04-01T19:59:09;101201.94;;;10.17;83.58
78665;BME280;67981;51.022;-2.870;2023-04-01T20:04:22;101219.03;;;10.15;83.88
78665;BME280;67981;51.022;-2.870;2023-04-01T20:15:29;101228.13;;;10.05;84.96
78665;BME280;67981;51.022;-2.870;2023-04-01T20:17:59;101220.31;;;10.04;84.61
78665;BME280;67981;51.022;-2.870;2023-04-01T20:20:28;101232.28;;;10.02;85.29
78665;BME280;67981;51.022;-2.870;2023-04-01T20:26:11;101246.94;;;10.03;85.06
78665;BME280;67981;51.022;-2.870;2023-04-01T20:28:42;101226.69;;;9.90;84.69
78665;BME280;67981;51.022;-2.870;2023-04-01T20:31:18;101239.41;;;9.85;84.50
78665;BME280;67981;51.022;-2.870;2023-04-01T20:50:29;101316.25;;;9.95;81.23
78665;BME280;67981;51.022;-2.870;2023-04-01T20:53:16;101301.84;;;9.78;82.16
78665;BME280;67981;51.022;-2.870;2023-04-01T21:15:07;101355.50;;;9.66;72.69
78665;BME280;67981;51.022;-2.870;2023-04-01T21:20:49;101363.97;;;9.64;72.04
78665;BME280;67981;51.022;-2.870;2023-04-01T21:26:04;101379.19;;;9.58;71.19
78665;BME280;67981;51.022;-2.870;2023-04-01T21:44:38;101419.97;;;9.47;74.17
78665;BME280;67981;51.022;-2.870;2023-04-01T21:53:21;101427.44;;;9.41;75.16
78665;BME280;67981;51.022;-2.870;2023-04-01T21:59:19;101440.31;;;9.41;75.42
78665;BME280;67981;51.022;-2.870;2023-04-01T22:12:44;101461.28;;;9.30;75.29
78665;BME280;67981;51.022;-2.870;2023-04-01T22:18:18;101464.13;;;9.17;74.17
78665;BME280;67981;51.022;-2.870;2023-04-01T22:20:58;101466.38;;;9.09;73.99
78665;BME280;67981;51.022;-2.870;2023-04-01T22:23:42;101445.59;;;8.86;73.93
78665;BME280;67981;51.022;-2.870;2023-04-01T22:31:28;101449.38;;;8.75;73.77
78665;BME280;67981;51.022;-2.870;2023-04-01T22:34:03;101476.69;;;8.90;74.35
78665;BME280;67981;51.022;-2.870;2023-04-01T22:45:25;101496.53;;;8.93;73.86
78665;BME280;67981;51.022;-2.870;2023-04-01T22:50:27;101495.47;;;8.70;74.83
78665;BME280;67981;51.022;-2.870;2023-04-01T22:55:32;101507.41;;;8.68;74.45
78665;BME280;67981;51.022;-2.870;2023-04-01T22:58:05;101508.00;;;8.63;74.60
78665;BME280;67981;51.022;-2.870;2023-04-01T23:00:43;101471.66;;;8.37;75.13
78665;BME280;67981;51.022;-2.870;2023-04-01T23:03:28;101513.28;;;8.66;74.67
78665;BME280;67981;51.022;-2.870;2023-04-01T23:05:57;101520.34;;;8.70;74.71
78665;BME280;67981;51.022;-2.870;2023-04-01T23:08:54;101522.09;;;8.71;74.65
78665;BME280;67981;51.022;-2.870;2023-04-01T23:11:30;101527.81;;;8.65;74.65
78665;BME280;67981;51.022;-2.870;2023-04-01T23:20:07;101551.28;;;8.71;75.52
78665;BME280;67981;51.022;-2.870;2023-04-01T23:27:56;101562.59;;;8.57;76.25
78665;BME280;67981;51.022;-2.870;2023-04-01T23:38:16;101573.22;;;8.45;76.79
78665;BME280;67981;51.022;-2.870;2023-04-01T23:40:42;101564.66;;;8.46;77.04
78665;BME280;67981;51.022;-2.870;2023-04-01T23:43:19;101553.00;;;8.35;77.22
78665;BME280;67981;51.022;-2.870;2023-04-01T23:45:47;101584.50;;;8.49;76.74
78665;BME280;67981;51.022;-2.870;2023-04-01T23:48:15;101599.00;;;8.47;75.93
78665;BME280;67981;51.022;-2.870;2023-04-01T23:50:41;101588.78;;;8.48;75.79
78665;BME280;67981;51.022;-2.870;2023-04-01T23:53:18;101589.34;;;8.43;75.43
78665;BME280;67981;51.022;-2.870;2023-04-01T23:55:45;101605.75;;;8.45;75.66
78665;BME280;67981;51.022;-2.870;2023-04-01T23:58:18;101598.25;;;8.49;76.13
